createdAt,value
2019-05-09T00:00:23.316Z,79.93
2019-05-09T00:01:23.510Z,79.52
2019-05-09T00:02:21.390Z,79.87
2019-05-09T00:03:21.368Z,79.87
2019-05-09T00:04:23.119Z,79.77
2019-05-09T00:05:23.311Z,79.97
2019-05-09T00:06:23.941Z,80.49
2019-05-09T00:07:23.326Z,80.79
2019-05-09T00:08:23.103Z,81.10
2019-05-09T00:09:23.198Z,81.00
2019-05-09T00:10:35.228Z,80.90
2019-05-09T00:11:24.462Z,80.49
2019-05-09T00:12:23.311Z,80.49
2019-05-09T00:13:23.555Z,80.07
2019-05-09T00:14:21.277Z,80.79
2019-05-09T00:15:21.300Z,81.20
2019-05-09T00:16:23.334Z,80.69
2019-05-09T00:17:23.187Z,80.49
2019-05-09T00:18:23.172Z,81.20
2019-05-09T00:19:21.187Z,80.49
2019-05-09T00:20:21.182Z,80.18
2019-05-09T00:21:21.189Z,80.49
2019-05-09T00:22:21.166Z,80.49
2019-05-09T00:23:28.986Z,79.77
2019-05-09T00:24:21.328Z,79.66
2019-05-09T00:25:23.494Z,80.28
2019-05-09T00:26:23.407Z,80.28
2019-05-09T00:27:23.094Z,79.97
2019-05-09T00:28:23.529Z,80.49
2019-05-09T00:29:21.091Z,80.07
2019-05-09T00:30:22.708Z,79.77
2019-05-09T00:31:21.118Z,80.38
2019-05-09T00:32:21.052Z,80.58
2019-05-09T00:33:23.459Z,81.30
2019-05-09T00:34:23.316Z,80.58
2019-05-09T00:35:23.239Z,80.38
2019-05-09T00:36:23.075Z,80.79
2019-05-09T00:37:21.011Z,80.28
2019-05-09T00:38:21.000Z,80.42
2019-05-09T00:39:23.584Z,80.52
2019-05-09T00:40:21.039Z,79.91
2019-05-09T00:41:20.963Z,80.52
2019-05-09T00:42:20.971Z,80.83
2019-05-09T00:43:23.678Z,80.73
2019-05-09T00:44:23.134Z,80.83
2019-05-09T00:45:21.031Z,80.83
2019-05-09T00:46:20.920Z,80.52
2019-05-09T00:47:21.360Z,80.01
2019-05-09T00:48:23.096Z,80.11
2019-05-09T00:49:20.900Z,80.42
2019-05-09T00:50:20.911Z,80.73
2019-05-09T00:51:23.128Z,81.04
2019-05-09T00:52:20.884Z,81.34
2019-05-09T00:53:23.116Z,80.63
2019-05-09T00:54:21.192Z,80.42
2019-05-09T00:55:20.810Z,80.73
2019-05-09T00:56:20.913Z,81.55
2019-05-09T00:57:22.982Z,81.34
2019-05-09T00:58:20.801Z,81.38
2019-05-09T00:59:20.803Z,82.10
2019-05-09T01:00:20.767Z,81.48
2019-05-09T01:01:20.790Z,82.10
2019-05-09T01:02:20.764Z,81.48
2019-05-09T01:03:23.335Z,80.35
2019-05-09T01:04:21.060Z,80.46
2019-05-09T01:05:20.787Z,81.59
2019-05-09T01:06:20.704Z,82.82
2019-05-09T01:07:20.704Z,82.10
2019-05-09T01:08:20.701Z,82.20
2019-05-09T01:09:20.669Z,81.79
2019-05-09T01:10:21.011Z,82.34
2019-05-09T01:11:23.977Z,83.23
2019-05-09T01:12:20.736Z,82.24
2019-05-09T01:13:23.102Z,82.14
2019-05-09T01:14:20.613Z,82.14
2019-05-09T01:15:20.631Z,82.34
2019-05-09T01:16:20.613Z,81.83
2019-05-09T01:17:20.647Z,82.04
2019-05-09T01:18:20.604Z,82.45
2019-05-09T01:19:20.589Z,82.76
2019-05-09T01:20:20.579Z,82.65
2019-05-09T01:21:20.524Z,82.34
2019-05-09T01:22:20.547Z,82.76
2019-05-09T01:23:20.489Z,82.86
2019-05-09T01:24:20.527Z,83.58
2019-05-09T01:25:20.498Z,83.27
2019-05-09T01:26:20.513Z,83.17
2019-05-09T01:27:20.520Z,83.27
2019-05-09T01:28:20.496Z,83.06
2019-05-09T01:29:20.469Z,82.96
2019-05-09T01:30:20.428Z,83.68
2019-05-09T01:31:20.492Z,84.09
2019-05-09T01:32:20.505Z,84.40
2019-05-09T01:33:20.458Z,83.99
2019-05-09T01:34:20.430Z,83.58
2019-05-09T01:35:20.398Z,83.17
2019-05-09T01:36:20.365Z,83.78
2019-05-09T01:37:20.386Z,83.27
2019-05-09T01:38:23.232Z,83.48
2019-05-09T01:39:20.328Z,84.09
2019-05-09T01:40:20.306Z,83.89
2019-05-09T01:41:28.016Z,84.50
2019-05-09T01:42:23.220Z,84.61
2019-05-09T01:43:20.698Z,84.30
2019-05-09T01:44:20.650Z,84.81
2019-05-09T01:45:20.362Z,84.30
2019-05-09T01:46:20.374Z,84.81
2019-05-09T01:47:20.300Z,85.02
2019-05-09T01:48:20.278Z,84.61
2019-05-09T01:49:20.246Z,84.81
2019-05-09T01:50:20.197Z,84.71
2019-05-09T01:51:20.248Z,84.40
2019-05-09T01:52:20.197Z,83.99
2019-05-09T01:53:20.173Z,83.99
2019-05-09T01:54:20.223Z,85.02
2019-05-09T01:55:20.166Z,84.50
2019-05-09T01:56:20.215Z,84.30
2019-05-09T01:57:20.179Z,84.40
2019-05-09T01:58:20.247Z,84.50
2019-05-09T01:59:20.116Z,84.09
2019-05-09T02:00:20.132Z,83.48
2019-05-09T02:01:20.160Z,83.48
2019-05-09T02:02:20.079Z,83.48
2019-05-09T02:03:20.077Z,83.78
2019-05-09T02:04:20.359Z,84.30
2019-05-09T02:05:20.108Z,83.58
2019-05-09T02:06:20.036Z,83.58
2019-05-09T02:07:20.006Z,82.96
2019-05-09T02:08:20.006Z,82.76
2019-05-09T02:09:20.051Z,83.06
2019-05-09T02:10:20.045Z,84.09
2019-05-09T02:11:19.969Z,83.89
2019-05-09T02:12:19.983Z,84.20
2019-05-09T02:13:19.991Z,82.76
2019-05-09T02:14:19.946Z,82.76
2019-05-09T02:15:20.039Z,82.65
2019-05-09T02:16:19.947Z,82.86
2019-05-09T02:17:19.915Z,83.58
2019-05-09T02:18:19.956Z,83.99
2019-05-09T02:19:19.913Z,83.89
2019-05-09T02:20:19.885Z,84.09
2019-05-09T02:21:19.875Z,84.09
2019-05-09T02:22:19.853Z,83.27
2019-05-09T02:23:19.856Z,83.27
2019-05-09T02:24:19.865Z,83.27
2019-05-09T02:25:19.912Z,83.58
2019-05-09T02:26:19.868Z,83.89
2019-05-09T02:27:19.985Z,83.58
2019-05-09T02:28:19.794Z,83.89
2019-05-09T02:29:19.767Z,84.09
2019-05-09T02:30:19.794Z,84.09
2019-05-09T02:31:19.746Z,83.89
2019-05-09T02:32:19.836Z,84.20
2019-05-09T02:33:19.733Z,84.30
2019-05-09T02:34:19.764Z,85.43
2019-05-09T02:35:20.684Z,85.02
2019-05-09T02:36:19.725Z,84.71
2019-05-09T02:37:19.705Z,84.20
2019-05-09T02:38:20.101Z,84.50
2019-05-09T02:39:19.730Z,84.30
2019-05-09T02:40:19.686Z,84.50
2019-05-09T02:41:20.091Z,84.30
2019-05-09T02:42:19.897Z,84.61
2019-05-09T02:43:19.894Z,84.30
2019-05-09T02:44:19.954Z,83.89
2019-05-09T02:45:19.627Z,84.30
2019-05-09T02:46:19.626Z,84.09
2019-05-09T02:47:19.653Z,84.61
2019-05-09T02:48:19.643Z,83.68
2019-05-09T02:49:19.854Z,83.89
2019-05-09T02:50:19.828Z,83.37
2019-05-09T02:51:19.592Z,84.20
2019-05-09T02:52:19.994Z,83.58
2019-05-09T02:53:19.525Z,82.96
2019-05-09T02:54:19.528Z,82.55
2019-05-09T02:55:19.503Z,83.06
2019-05-09T02:56:19.548Z,83.06
2019-05-09T02:57:19.487Z,82.96
2019-05-09T02:58:20.552Z,82.55
2019-05-09T02:59:19.498Z,82.76
2019-05-09T03:00:20.216Z,82.65
2019-05-09T03:01:19.503Z,83.27
2019-05-09T03:02:19.818Z,83.37
2019-05-09T03:03:19.975Z,83.48
2019-05-09T03:04:19.395Z,82.86
2019-05-09T03:05:19.795Z,82.86
2019-05-09T03:06:21.284Z,83.17
2019-05-09T03:07:19.398Z,83.06
2019-05-09T03:08:19.628Z,82.45
2019-05-09T03:09:19.409Z,83.06
2019-05-09T03:10:19.413Z,83.17
2019-05-09T03:11:19.346Z,83.27
2019-05-09T03:12:30.504Z,82.65
2019-05-09T03:13:20.310Z,83.06
2019-05-09T03:14:19.709Z,83.11
2019-05-09T03:15:19.288Z,83.00
2019-05-09T03:16:19.346Z,83.51
2019-05-09T03:17:19.313Z,83.41
2019-05-09T03:18:21.025Z,82.90
2019-05-09T03:19:19.726Z,82.69
2019-05-09T03:20:19.372Z,82.90
2019-05-09T03:21:19.391Z,83.20
2019-05-09T03:22:19.491Z,83.20
2019-05-09T03:23:19.506Z,82.90
2019-05-09T03:24:19.546Z,83.11
2019-05-09T03:25:19.344Z,83.72
2019-05-09T03:26:19.611Z,83.83
2019-05-09T03:27:19.258Z,83.72
2019-05-09T03:28:19.177Z,83.72
2019-05-09T03:29:19.289Z,83.62
2019-05-09T03:30:20.672Z,83.92
2019-05-09T03:31:19.783Z,84.23
2019-05-09T03:32:19.811Z,83.92
2019-05-09T03:33:20.148Z,84.03
2019-05-09T03:34:19.709Z,84.03
2019-05-09T03:35:19.127Z,84.03
2019-05-09T03:36:19.051Z,83.31
2019-05-09T03:37:19.048Z,83.83
2019-05-09T03:38:19.013Z,83.72
2019-05-09T03:39:19.772Z,83.72
2019-05-09T03:40:19.070Z,83.62
2019-05-09T03:41:19.063Z,83.51
2019-05-09T03:42:22.973Z,83.11
2019-05-09T03:43:20.050Z,82.90
2019-05-09T03:44:18.981Z,83.62
2019-05-09T03:45:19.008Z,82.86
2019-05-09T03:46:19.004Z,82.86
2019-05-09T03:47:18.990Z,82.76
2019-05-09T03:48:18.910Z,82.45
2019-05-09T03:49:19.027Z,82.24
2019-05-09T03:50:18.872Z,82.34
2019-05-09T03:51:18.932Z,82.34
2019-05-09T03:52:19.671Z,82.55
2019-05-09T03:53:18.942Z,82.76
2019-05-09T03:54:18.851Z,82.45
2019-05-09T03:55:18.858Z,82.76
2019-05-09T03:56:18.812Z,82.96
2019-05-09T03:57:18.953Z,83.51
2019-05-09T03:58:18.881Z,83.11
2019-05-09T03:59:18.784Z,83.00
2019-05-09T04:00:18.826Z,83.31
2019-05-09T04:01:18.846Z,83.31
2019-05-09T04:02:18.821Z,83.41
2019-05-09T04:03:20.371Z,83.55
2019-05-09T04:04:19.584Z,84.38
2019-05-09T04:05:18.762Z,84.27
2019-05-09T04:06:18.953Z,84.27
2019-05-09T04:07:19.628Z,83.76
2019-05-09T04:08:18.746Z,84.27
2019-05-09T04:09:18.730Z,84.38
2019-05-09T04:10:18.719Z,84.27
2019-05-09T04:11:18.696Z,83.97
2019-05-09T04:12:18.697Z,84.27
2019-05-09T04:13:18.678Z,84.17
2019-05-09T04:14:21.370Z,84.17
2019-05-09T04:15:19.171Z,84.52
2019-05-09T04:16:19.164Z,84.52
2019-05-09T04:17:18.608Z,84.52
2019-05-09T04:18:18.599Z,84.31
2019-05-09T04:19:18.656Z,84.42
2019-05-09T04:20:18.600Z,84.62
2019-05-09T04:21:18.539Z,84.52
2019-05-09T04:22:19.360Z,84.21
2019-05-09T04:23:18.808Z,83.97
2019-05-09T04:24:18.516Z,83.76
2019-05-09T04:25:18.623Z,83.86
2019-05-09T04:26:18.539Z,84.07
2019-05-09T04:27:18.767Z,83.97
2019-05-09T04:28:18.518Z,83.76
2019-05-09T04:29:18.573Z,83.55
2019-05-09T04:30:18.858Z,83.14
2019-05-09T04:31:19.212Z,83.45
2019-05-09T04:32:18.517Z,83.55
2019-05-09T04:33:18.497Z,83.55
2019-05-09T04:34:18.527Z,83.65
2019-05-09T04:35:18.481Z,83.76
2019-05-09T04:36:18.414Z,83.55
2019-05-09T04:37:18.401Z,83.35
2019-05-09T04:38:18.629Z,83.97
2019-05-09T04:39:23.367Z,83.65
2019-05-09T04:40:19.484Z,83.55
2019-05-09T04:41:23.684Z,83.55
2019-05-09T04:42:19.384Z,83.55
2019-05-09T04:43:26.650Z,83.86
2019-05-09T04:44:21.839Z,83.55
2019-05-09T04:45:18.378Z,83.45
2019-05-09T04:46:24.132Z,83.55
2019-05-09T04:47:19.267Z,83.76
2019-05-09T04:48:23.893Z,83.86
2019-05-09T04:49:19.377Z,83.55
2019-05-09T04:50:23.541Z,83.55
2019-05-09T04:51:19.216Z,83.70
2019-05-09T04:52:18.230Z,84.00
2019-05-09T04:53:18.360Z,84.21
2019-05-09T04:54:18.301Z,84.31
2019-05-09T04:55:18.318Z,84.42
2019-05-09T04:56:18.197Z,84.21
2019-05-09T04:57:18.402Z,84.31
2019-05-09T04:58:19.151Z,84.21
2019-05-09T04:59:18.199Z,84.31
2019-05-09T05:00:18.443Z,84.31
2019-05-09T05:01:19.796Z,84.42
2019-05-09T05:02:18.353Z,84.11
2019-05-09T05:03:18.453Z,84.00
2019-05-09T05:04:18.173Z,84.21
2019-05-09T05:05:18.815Z,84.52
2019-05-09T05:06:20.636Z,84.52
2019-05-09T05:07:18.280Z,84.42
2019-05-09T05:08:18.244Z,84.31
2019-05-09T05:09:21.183Z,84.31
2019-05-09T05:10:18.485Z,84.62
2019-05-09T05:11:18.100Z,84.21
2019-05-09T05:12:18.525Z,84.11
2019-05-09T05:13:26.360Z,83.18
2019-05-09T05:14:19.009Z,82.77
2019-05-09T05:15:20.433Z,82.01
2019-05-09T05:16:18.496Z,81.81
2019-05-09T05:17:18.253Z,81.70
2019-05-09T05:18:20.301Z,81.81
2019-05-09T05:19:17.934Z,81.91
2019-05-09T05:20:18.742Z,81.70
2019-05-09T05:21:19.996Z,81.70
2019-05-09T05:22:18.298Z,82.01
2019-05-09T05:23:18.323Z,81.70
2019-05-09T05:24:18.535Z,81.39
2019-05-09T05:25:17.982Z,81.19
2019-05-09T05:26:18.380Z,81.15
2019-05-09T05:27:18.898Z,81.35
2019-05-09T05:28:17.821Z,81.15
2019-05-09T05:29:18.074Z,80.43
2019-05-09T05:30:18.113Z,80.74
2019-05-09T05:31:18.193Z,80.74
2019-05-09T05:32:17.916Z,80.84
2019-05-09T05:33:18.475Z,81.05
2019-05-09T05:34:18.274Z,80.80
2019-05-09T05:35:18.433Z,80.39
2019-05-09T05:36:18.167Z,80.91
2019-05-09T05:37:17.749Z,81.21
2019-05-09T05:38:17.785Z,81.32
2019-05-09T05:39:17.936Z,80.91
2019-05-09T05:40:17.896Z,80.91
2019-05-09T05:41:18.284Z,79.16
2019-05-09T05:42:17.696Z,78.81
2019-05-09T05:43:17.660Z,78.81
2019-05-09T05:44:17.949Z,78.71
2019-05-09T05:45:18.284Z,78.50
2019-05-09T05:46:18.271Z,77.85
2019-05-09T05:47:18.099Z,77.55
2019-05-09T05:48:17.649Z,77.85
2019-05-09T05:49:18.654Z,77.65
2019-05-09T05:50:17.761Z,77.65
2019-05-09T05:51:18.429Z,76.51
2019-05-09T05:52:18.542Z,76.48
2019-05-09T05:53:18.293Z,76.07
2019-05-09T05:54:18.143Z,75.04
2019-05-09T05:55:18.407Z,75.45
2019-05-09T05:56:17.873Z,74.84
2019-05-09T05:57:17.792Z,74.29
2019-05-09T05:58:18.051Z,74.19
2019-05-09T05:59:17.927Z,73.98
2019-05-09T06:00:18.067Z,73.36
2019-05-09T06:01:18.745Z,72.85
2019-05-09T06:02:17.902Z,72.51
2019-05-09T06:03:17.875Z,71.59
2019-05-09T06:04:18.492Z,71.90
2019-05-09T06:05:18.657Z,71.80
2019-05-09T06:06:17.626Z,70.84
2019-05-09T06:07:18.450Z,70.73
2019-05-09T06:08:17.596Z,70.22
2019-05-09T06:09:19.016Z,69.71
2019-05-09T06:10:18.614Z,69.20
2019-05-09T06:11:17.823Z,68.96
2019-05-09T06:12:18.548Z,69.17
2019-05-09T06:13:18.317Z,68.55
2019-05-09T06:14:18.387Z,68.65
2019-05-09T06:15:18.268Z,68.32
2019-05-09T06:16:18.225Z,67.49
2019-05-09T06:17:18.136Z,67.49
2019-05-09T06:18:18.419Z,66.88
2019-05-09T06:19:17.905Z,67.70
2019-05-09T06:20:17.856Z,67.67
2019-05-09T06:21:17.800Z,66.44
2019-05-09T06:22:18.349Z,66.64
2019-05-09T06:23:17.692Z,66.34
2019-05-09T06:24:17.850Z,66.13
2019-05-09T06:25:20.975Z,66.31
2019-05-09T06:26:18.547Z,66.10
2019-05-09T06:27:18.290Z,65.18
2019-05-09T06:28:18.249Z,65.08
2019-05-09T06:29:17.880Z,65.18
2019-05-09T06:30:20.067Z,64.98
2019-05-09T06:31:17.901Z,64.74
2019-05-09T06:32:18.853Z,64.13
2019-05-09T06:33:18.114Z,64.33
2019-05-09T06:34:18.793Z,63.62
2019-05-09T06:35:17.597Z,63.92
2019-05-09T06:36:18.863Z,63.92
2019-05-09T06:37:18.321Z,63.21
2019-05-09T06:38:18.685Z,63.51
2019-05-09T06:39:17.976Z,62.80
2019-05-09T06:40:17.748Z,63.00
2019-05-09T06:41:17.654Z,62.59
2019-05-09T06:42:18.151Z,62.66
2019-05-09T06:43:18.289Z,61.95
2019-05-09T06:44:20.315Z,62.16
2019-05-09T06:45:17.950Z,62.46
2019-05-09T06:46:18.226Z,61.65
2019-05-09T06:47:18.525Z,62.26
2019-05-09T06:48:18.060Z,62.57
2019-05-09T06:49:27.623Z,62.36
2019-05-09T06:50:18.537Z,61.54
2019-05-09T06:51:20.932Z,62.05
2019-05-09T06:52:17.466Z,61.85
2019-05-09T06:53:18.115Z,61.24
2019-05-09T06:54:17.480Z,62.05
2019-05-09T06:55:17.405Z,61.34
2019-05-09T06:56:17.801Z,61.24
2019-05-09T06:57:18.695Z,61.34
2019-05-09T06:58:18.387Z,61.54
2019-05-09T06:59:18.944Z,61.72
2019-05-09T07:00:17.821Z,61.21
2019-05-09T07:01:18.278Z,61.41
2019-05-09T07:02:17.641Z,61.72
2019-05-09T07:03:18.495Z,61.92
2019-05-09T07:04:18.330Z,61.31
2019-05-09T07:05:17.946Z,61.31
2019-05-09T07:06:17.788Z,61.21
2019-05-09T07:07:17.635Z,61.21
2019-05-09T07:08:18.328Z,61.18
2019-05-09T07:09:17.455Z,61.08
2019-05-09T07:10:17.865Z,60.77
2019-05-09T07:11:19.013Z,61.08
2019-05-09T07:12:18.093Z,60.87
2019-05-09T07:13:18.277Z,60.16
2019-05-09T07:14:26.714Z,60.16
2019-05-09T07:15:17.853Z,60.05
2019-05-09T07:16:18.663Z,60.23
2019-05-09T07:17:18.300Z,59.92
2019-05-09T07:18:18.406Z,59.92
2019-05-09T07:19:17.463Z,60.13
2019-05-09T07:20:18.239Z,60.03
2019-05-09T07:21:18.780Z,59.92
2019-05-09T07:22:18.399Z,59.28
2019-05-09T07:23:17.736Z,59.39
2019-05-09T07:24:18.631Z,59.49
2019-05-09T07:25:18.643Z,59.39
2019-05-09T07:26:17.716Z,59.49
2019-05-09T07:27:17.925Z,58.47
2019-05-09T07:28:17.969Z,58.34
2019-05-09T07:29:17.856Z,58.75
2019-05-09T07:30:17.955Z,57.93
2019-05-09T07:31:17.718Z,57.52
2019-05-09T07:32:18.210Z,57.73
2019-05-09T07:33:18.732Z,57.93
2019-05-09T07:34:18.470Z,58.34
2019-05-09T07:35:18.634Z,58.03
2019-05-09T07:36:18.830Z,57.62
2019-05-09T07:37:18.493Z,57.62
2019-05-09T07:38:17.780Z,57.12
2019-05-09T07:39:17.710Z,56.50
2019-05-09T07:40:18.079Z,56.60
2019-05-09T07:41:17.841Z,56.91
2019-05-09T07:42:18.039Z,56.91
2019-05-09T07:43:18.059Z,57.42
2019-05-09T07:44:18.285Z,56.91
2019-05-09T07:45:17.910Z,57.29
2019-05-09T07:46:52.518Z,57.39
2019-05-09T07:47:17.770Z,56.58
2019-05-09T07:48:18.120Z,56.99
2019-05-09T07:49:17.569Z,57.39
2019-05-09T07:50:18.943Z,57.19
2019-05-09T07:51:18.090Z,56.37
2019-05-09T07:52:18.641Z,56.07
2019-05-09T07:53:17.680Z,55.87
2019-05-09T07:54:23.300Z,56.07
2019-05-09T07:55:18.021Z,55.97
2019-05-09T07:56:18.495Z,56.17
2019-05-09T07:57:18.116Z,56.27
2019-05-09T07:58:18.706Z,56.17
2019-05-09T07:59:18.069Z,55.97
2019-05-09T08:00:18.271Z,57.37
2019-05-09T08:01:19.118Z,55.53
2019-05-09T08:02:17.631Z,54.92
2019-05-09T08:03:18.123Z,54.82
2019-05-09T08:04:18.286Z,54.82
2019-05-09T08:05:17.422Z,54.51
2019-05-09T08:06:18.394Z,54.41
2019-05-09T08:07:17.556Z,53.98
2019-05-09T08:08:18.473Z,54.39
2019-05-09T08:09:18.494Z,54.39
2019-05-09T08:10:17.599Z,53.88
2019-05-09T08:11:18.016Z,53.67
2019-05-09T08:12:17.984Z,53.78
2019-05-09T08:13:18.183Z,53.78
2019-05-09T08:14:17.711Z,53.98
2019-05-09T08:15:17.437Z,54.08
2019-05-09T08:16:18.428Z,53.75
2019-05-09T08:17:18.089Z,53.65
2019-05-09T08:18:17.455Z,53.85
2019-05-09T08:19:18.094Z,53.42
2019-05-09T08:20:17.542Z,53.11
2019-05-09T08:21:18.106Z,52.48
2019-05-09T08:22:24.784Z,52.48
2019-05-09T08:23:18.046Z,52.28
2019-05-09T08:24:18.174Z,52.78
2019-05-09T08:25:18.208Z,51.77
2019-05-09T08:26:15.947Z,51.16
2019-05-09T08:27:17.477Z,51.03
2019-05-09T08:28:17.668Z,50.93
2019-05-09T08:29:17.816Z,51.14
2019-05-09T08:30:18.006Z,51.03
2019-05-09T08:31:17.832Z,51.03
2019-05-09T08:32:48.003Z,51.75
2019-05-09T08:33:18.417Z,51.54
2019-05-09T08:34:16.010Z,51.64
2019-05-09T08:35:18.172Z,50.90
2019-05-09T08:36:20.178Z,50.60
2019-05-09T08:37:17.572Z,50.68
2019-05-09T08:38:19.601Z,50.37
2019-05-09T08:39:18.412Z,50.45
2019-05-09T08:40:21.104Z,49.84
2019-05-09T08:41:18.686Z,49.95
2019-05-09T08:42:17.974Z,50.25
2019-05-09T08:43:17.883Z,49.82
2019-05-09T08:44:18.401Z,49.21
2019-05-09T08:45:27.873Z,48.71
2019-05-09T08:46:18.157Z,48.80
2019-05-09T08:47:18.336Z,48.07
2019-05-09T08:48:16.318Z,48.18
2019-05-09T08:49:15.602Z,48.27
2019-05-09T08:50:17.606Z,48.55
2019-05-09T08:51:17.877Z,47.97
2019-05-09T08:52:17.202Z,47.77
2019-05-09T08:53:15.564Z,47.97
2019-05-09T08:54:18.262Z,48.78
2019-05-09T08:55:17.442Z,48.07
2019-05-09T08:56:17.662Z,48.58
2019-05-09T08:57:18.039Z,48.48
2019-05-09T08:58:19.251Z,48.27
2019-05-09T08:59:15.548Z,48.18
2019-05-09T09:00:15.478Z,49.16
2019-05-09T09:01:27.456Z,48.25
2019-05-09T09:02:21.906Z,47.95
2019-05-09T09:03:18.501Z,48.63
2019-05-09T09:04:15.476Z,48.33
2019-05-09T09:05:15.417Z,47.52
2019-05-09T09:06:15.439Z,47.60
2019-05-09T09:07:18.723Z,46.77
2019-05-09T09:08:15.449Z,46.46
2019-05-09T09:09:17.879Z,46.75
2019-05-09T09:10:17.884Z,45.94
2019-05-09T09:11:15.472Z,45.94
2019-05-09T09:12:29.460Z,44.82
2019-05-09T09:13:17.502Z,44.92
2019-05-09T09:14:15.351Z,45.00
2019-05-09T09:15:17.812Z,44.40
2019-05-09T09:16:21.439Z,43.99
2019-05-09T09:17:18.483Z,44.70
2019-05-09T09:18:17.717Z,43.30
2019-05-09T09:19:17.797Z,44.72
2019-05-09T09:20:15.357Z,43.30
2019-05-09T09:21:18.143Z,43.08
2019-05-09T09:22:17.812Z,42.98
2019-05-09T09:23:17.860Z,42.66
2019-05-09T09:24:17.584Z,42.55
2019-05-09T09:25:15.291Z,43.06
2019-05-09T09:26:15.187Z,43.38
2019-05-09T09:27:15.167Z,43.91
2019-05-09T09:28:15.583Z,44.52
2019-05-09T09:29:15.162Z,44.24
2019-05-09T09:30:21.654Z,44.87
2019-05-09T09:31:18.042Z,44.66
2019-05-09T09:32:18.678Z,44.99
2019-05-09T09:33:17.612Z,45.19
2019-05-09T09:34:15.151Z,45.50
2019-05-09T09:35:15.097Z,45.01
2019-05-09T09:36:17.834Z,44.81
2019-05-09T09:37:18.315Z,44.90
2019-05-09T09:38:15.095Z,45.23
2019-05-09T09:39:15.072Z,45.33
2019-05-09T09:40:17.531Z,45.64
2019-05-09T09:41:15.191Z,45.74
2019-05-09T09:42:15.431Z,45.84
2019-05-09T09:43:17.457Z,45.54
2019-05-09T09:44:15.119Z,45.42
2019-05-09T09:45:15.032Z,45.51
2019-05-09T09:46:15.023Z,44.90
2019-05-09T09:47:20.585Z,44.81
2019-05-09T09:48:18.123Z,44.70
2019-05-09T09:49:14.930Z,44.81
2019-05-09T09:50:17.525Z,44.81
2019-05-09T09:51:15.025Z,44.81
2019-05-09T09:52:14.936Z,45.01
2019-05-09T09:53:14.915Z,44.30
2019-05-09T09:54:14.910Z,44.70
2019-05-09T09:55:14.909Z,44.50
2019-05-09T09:56:17.661Z,44.81
2019-05-09T09:57:14.903Z,44.30
2019-05-09T09:58:14.822Z,43.99
2019-05-09T09:59:15.165Z,43.89
2019-05-09T10:00:14.796Z,43.57
2019-05-09T10:01:14.946Z,44.07
2019-05-09T10:02:15.302Z,43.75
2019-05-09T10:03:14.764Z,43.44
2019-05-09T10:04:22.833Z,43.14
2019-05-09T10:05:18.157Z,43.23
2019-05-09T10:06:14.813Z,43.52
2019-05-09T10:07:14.715Z,42.52
2019-05-09T10:08:14.825Z,42.69
2019-05-09T10:09:14.780Z,42.09
2019-05-09T10:10:14.694Z,42.31
2019-05-09T10:11:14.775Z,42.72
2019-05-09T10:12:14.658Z,42.52
2019-05-09T10:13:14.662Z,42.61
2019-05-09T10:14:14.645Z,42.84
2019-05-09T10:15:15.591Z,42.23
2019-05-09T10:16:28.303Z,42.13
2019-05-09T10:17:17.615Z,42.23
2019-05-09T10:18:14.785Z,42.33
2019-05-09T10:19:14.622Z,42.13
2019-05-09T10:20:14.564Z,42.23
2019-05-09T10:21:14.650Z,42.23
2019-05-09T10:22:14.524Z,42.63
2019-05-09T10:23:18.824Z,42.46
2019-05-09T10:24:17.525Z,42.84
2019-05-09T10:25:14.534Z,43.04
2019-05-09T10:26:14.563Z,42.84
2019-05-09T10:27:14.473Z,42.61
2019-05-09T10:28:14.486Z,42.82
2019-05-09T10:29:14.585Z,42.11
2019-05-09T10:30:14.508Z,41.58
2019-05-09T10:31:14.604Z,40.57
2019-05-09T10:32:14.578Z,41.06
2019-05-09T10:33:14.510Z,40.55
2019-05-09T10:34:14.426Z,40.23
2019-05-09T10:35:17.707Z,39.83
2019-05-09T10:36:14.446Z,39.93
2019-05-09T10:37:14.390Z,39.81
2019-05-09T10:38:14.434Z,40.11
2019-05-09T10:39:14.536Z,40.61
2019-05-09T10:40:15.027Z,40.31
2019-05-09T10:41:14.418Z,39.61
2019-05-09T10:42:14.406Z,39.70
2019-05-09T10:43:14.454Z,39.91
2019-05-09T10:44:14.364Z,39.20
2019-05-09T10:45:14.355Z,39.70
2019-05-09T10:46:18.225Z,39.91
2019-05-09T10:47:14.317Z,40.01
2019-05-09T10:48:14.346Z,40.23
2019-05-09T10:49:14.588Z,40.64
2019-05-09T10:50:14.249Z,40.73
2019-05-09T10:51:14.297Z,41.16
2019-05-09T10:52:14.777Z,41.46
2019-05-09T10:53:14.205Z,41.06
2019-05-09T10:54:14.538Z,41.38
2019-05-09T10:55:14.202Z,41.78
2019-05-09T10:56:15.115Z,41.71
2019-05-09T10:57:14.248Z,41.71
2019-05-09T10:58:14.140Z,41.83
2019-05-09T10:59:14.238Z,41.83
2019-05-09T11:00:14.116Z,41.83
2019-05-09T11:01:14.107Z,41.83
2019-05-09T11:02:14.459Z,42.23
2019-05-09T11:03:14.286Z,42.23
2019-05-09T11:04:14.084Z,42.23
2019-05-09T11:05:14.075Z,42.54
2019-05-09T11:06:14.056Z,42.54
2019-05-09T11:07:14.080Z,42.94
2019-05-09T11:08:14.060Z,42.61
2019-05-09T11:09:14.076Z,42.92
2019-05-09T11:10:25.671Z,43.52
2019-05-09T11:11:15.060Z,44.34
2019-05-09T11:12:14.010Z,44.87
2019-05-09T11:13:14.072Z,45.17
2019-05-09T11:14:31.658Z,45.59
2019-05-09T11:15:14.967Z,46.51
2019-05-09T11:16:13.976Z,46.94
2019-05-09T11:17:18.479Z,47.03
2019-05-09T11:18:14.944Z,47.11
2019-05-09T11:19:13.906Z,47.11
2019-05-09T11:20:13.888Z,47.31
2019-05-09T11:21:14.366Z,47.22
2019-05-09T11:22:14.004Z,48.15
2019-05-09T11:23:13.872Z,49.08
2019-05-09T11:24:13.855Z,49.90
2019-05-09T11:25:13.845Z,50.23
2019-05-09T11:26:13.866Z,50.53
2019-05-09T11:27:13.862Z,50.93
2019-05-09T11:28:15.150Z,51.37
2019-05-09T11:29:13.837Z,52.48
2019-05-09T11:30:13.800Z,52.58
2019-05-09T11:31:14.012Z,53.09
2019-05-09T11:32:13.809Z,53.72
2019-05-09T11:33:13.788Z,54.03
2019-05-09T11:34:13.740Z,53.32
2019-05-09T11:35:13.745Z,52.99
2019-05-09T11:36:14.857Z,52.28
2019-05-09T11:37:13.737Z,52.25
2019-05-09T11:38:13.908Z,52.25
2019-05-09T11:39:13.725Z,52.97
2019-05-09T11:40:13.721Z,52.56
2019-05-09T11:41:14.618Z,52.97
2019-05-09T11:42:13.777Z,52.46
2019-05-09T11:43:13.704Z,52.25
2019-05-09T11:44:13.676Z,53.60
2019-05-09T11:45:13.640Z,53.52
2019-05-09T11:46:13.609Z,54.64
2019-05-09T11:47:30.825Z,54.77
2019-05-09T11:48:14.888Z,55.58
2019-05-09T11:49:13.651Z,55.27
2019-05-09T11:50:13.618Z,55.88
2019-05-09T11:51:13.577Z,56.19
2019-05-09T11:52:13.570Z,54.36
2019-05-09T11:53:13.587Z,54.77
2019-05-09T11:54:16.415Z,54.03
2019-05-09T11:55:28.547Z,56.04
2019-05-09T11:56:14.520Z,55.20
2019-05-09T11:57:13.504Z,53.98
2019-05-09T11:58:13.506Z,52.44
2019-05-09T11:59:13.519Z,51.21
2019-05-09T12:00:13.479Z,50.31
2019-05-09T12:01:13.439Z,51.12
2019-05-09T12:02:13.521Z,50.81
2019-05-09T12:03:13.544Z,50.40
2019-05-09T12:04:13.439Z,51.62
2019-05-09T12:05:13.433Z,50.81
2019-05-09T12:06:15.998Z,50.00
2019-05-09T12:07:13.379Z,50.51
2019-05-09T12:08:13.397Z,50.81
2019-05-09T12:09:14.827Z,50.00
2019-05-09T12:10:13.402Z,50.00
2019-05-09T12:11:13.373Z,50.23
2019-05-09T12:12:13.368Z,51.24
2019-05-09T12:13:13.318Z,51.14
2019-05-09T12:14:13.361Z,51.21
2019-05-09T12:15:13.325Z,50.91
2019-05-09T12:16:13.283Z,50.51
2019-05-09T12:17:13.300Z,50.71
2019-05-09T12:18:13.310Z,48.68
2019-05-09T12:19:13.259Z,49.90
2019-05-09T12:20:13.778Z,50.28
2019-05-09T12:21:13.219Z,50.08
2019-05-09T12:22:13.233Z,49.06
2019-05-09T12:23:13.247Z,48.63
2019-05-09T12:24:13.213Z,48.43
2019-05-09T12:25:13.201Z,47.31
2019-05-09T12:26:13.255Z,46.10
2019-05-09T12:27:13.167Z,46.28
2019-05-09T12:28:13.203Z,46.48
2019-05-09T12:29:13.141Z,44.87
2019-05-09T12:30:13.128Z,44.76
2019-05-09T12:31:13.175Z,44.36
2019-05-09T12:32:13.139Z,44.46
2019-05-09T12:33:13.109Z,45.17
2019-05-09T12:34:13.116Z,43.32
2019-05-09T12:35:13.127Z,43.73
2019-05-09T12:36:13.070Z,43.12
2019-05-09T12:37:13.065Z,43.63
2019-05-09T12:38:13.077Z,43.02
2019-05-09T12:39:13.030Z,42.82
2019-05-09T12:40:13.117Z,42.40
2019-05-09T12:41:13.023Z,42.09
2019-05-09T12:42:13.020Z,42.29
2019-05-09T12:43:12.992Z,42.40
2019-05-09T12:44:13.108Z,42.60
2019-05-09T12:45:12.998Z,42.37
2019-05-09T12:46:13.198Z,42.58
2019-05-09T12:47:12.931Z,43.37
2019-05-09T12:48:15.571Z,42.43
2019-05-09T12:49:13.023Z,42.23
2019-05-09T12:50:13.569Z,42.43
2019-05-09T12:51:13.041Z,42.52
2019-05-09T12:52:12.929Z,41.91